sensor_id;sensor_type;location;lat;lon;timestamp;temperature;humidity
54898;DHT22;40800;52.704;6.398;2022-10-31T00:00:20;12.50;99.90
54898;DHT22;40800;52.704;6.398;2022-10-31T00:02:46;12.30;99.90
54898;DHT22;40800;52.704;6.398;2022-10-31T00:05:11;12.30;99.90
54898;DHT22;40800;52.704;6.398;2022-10-31T00:07:37;12.30;99.90
54898;DHT22;40800;52.704;6.398;2022-10-31T00:10:03;12.30;99.90
54898;DHT22;40800;52.704;6.398;2022-10-31T00:12:29;12.40;99.90
54898;DHT22;40800;52.704;6.398;2022-10-31T00:14:54;12.10;99.90
54898;DHT22;40800;52.704;6.398;2022-10-31T00:17:20;12.20;99.90
54898;DHT22;40800;52.704;6.398;2022-10-31T00:19:46;11.90;99.90
54898;DHT22;40800;52.704;6.398;2022-10-31T00:22:11;11.90;99.90
54898;DHT22;40800;52.704;6.398;2022-10-31T00:24:37;12.00;99.90
54898;DHT22;40800;52.704;6.398;2022-10-31T00:27:02;11.90;99.90
54898;DHT22;40800;52.704;6.398;2022-10-31T00:29:28;11.90;99.90
54898;DHT22;40800;52.704;6.398;2022-10-31T00:31:54;12.10;99.90
54898;DHT22;40800;52.704;6.398;2022-10-31T00:34:20;11.90;99.90
54898;DHT22;40800;52.704;6.398;2022-10-31T00:36:45;11.90;99.90
54898;DHT22;40800;52.704;6.398;2022-10-31T00:39:11;11.80;99.90
54898;DHT22;40800;52.704;6.398;2022-10-31T00:41:37;12.20;99.90
54898;DHT22;40800;52.704;6.398;2022-10-31T00:44:02;11.90;99.90
54898;DHT22;40800;52.704;6.398;2022-10-31T00:46:28;11.80;99.90
54898;DHT22;40800;52.704;6.398;2022-10-31T00:48:53;11.90;99.90
54898;DHT22;40800;52.704;6.398;2022-10-31T00:51:19;11.70;99.90
54898;DHT22;40800;52.704;6.398;2022-10-31T00:53:45;12.10;99.90
54898;DHT22;40800;52.704;6.398;2022-10-31T00:56:10;11.70;99.90
54898;DHT22;40800;52.704;6.398;2022-10-31T00:58:36;11.90;99.90
54898;DHT22;40800;52.704;6.398;2022-10-31T01:01:02;11.60;99.90
54898;DHT22;40800;52.704;6.398;2022-10-31T01:03:29;11.60;99.90
54898;DHT22;40800;52.704;6.398;2022-10-31T01:06:07;11.90;99.90
54898;DHT22;40800;52.704;6.398;2022-10-31T01:08:35;11.70;99.90
54898;DHT22;40800;52.704;6.398;2022-10-31T01:13:31;11.70;99.90
54898;DHT22;40800;52.704;6.398;2022-10-31T01:15:57;11.60;99.90
54898;DHT22;40800;52.704;6.398;2022-10-31T01:18:23;11.70;99.90
54898;DHT22;40800;52.704;6.398;2022-10-31T01:21:04;11.70;99.90
54898;DHT22;40800;52.704;6.398;2022-10-31T01:23:31;11.50;99.90
54898;DHT22;40800;52.704;6.398;2022-10-31T01:26:06;11.60;99.90
54898;DHT22;40800;52.704;6.398;2022-10-31T01:28:33;11.60;99.90
54898;DHT22;40800;52.704;6.398;2022-10-31T01:31:04;11.50;99.90
54898;DHT22;40800;52.704;6.398;2022-10-31T01:33:30;11.60;99.90
54898;DHT22;40800;52.704;6.398;2022-10-31T01:35:56;11.80;99.90
54898;DHT22;40800;52.704;6.398;2022-10-31T01:38:21;11.80;99.90
54898;DHT22;40800;52.704;6.398;2022-10-31T01:40:48;11.60;99.90
54898;DHT22;40800;52.704;6.398;2022-10-31T01:43:14;11.70;99.90
54898;DHT22;40800;52.704;6.398;2022-10-31T01:45:46;11.60;99.90
54898;DHT22;40800;52.704;6.398;2022-10-31T01:48:18;12.00;99.90
54898;DHT22;40800;52.704;6.398;2022-10-31T01:50:48;11.50;99.90
54898;DHT22;40800;52.704;6.398;2022-10-31T01:53:16;11.50;99.90
54898;DHT22;40800;52.704;6.398;2022-10-31T01:55:44;11.80;99.90
54898;DHT22;40800;52.704;6.398;2022-10-31T01:58:16;11.70;99.90
54898;DHT22;40800;52.704;6.398;2022-10-31T02:00:46;11.70;99.90
54898;DHT22;40800;52.704;6.398;2022-10-31T02:03:13;11.60;99.90
54898;DHT22;40800;52.704;6.398;2022-10-31T02:05:39;11.60;99.90
54898;DHT22;40800;52.704;6.398;2022-10-31T02:08:27;11.50;99.90
54898;DHT22;40800;52.704;6.398;2022-10-31T02:10:54;11.60;99.90
54898;DHT22;40800;52.704;6.398;2022-10-31T02:13:20;11.60;99.90
54898;DHT22;40800;52.704;6.398;2022-10-31T02:15:47;11.50;99.90
54898;DHT22;40800;52.704;6.398;2022-10-31T02:18:14;11.40;99.90
54898;DHT22;40800;52.704;6.398;2022-10-31T02:20:47;11.50;99.90
54898;DHT22;40800;52.704;6.398;2022-10-31T02:31:52;11.30;99.90
54898;DHT22;40800;52.704;6.398;2022-10-31T02:34:37;11.30;99.90
54898;DHT22;40800;52.704;6.398;2022-10-31T02:37:19;11.20;99.90
54898;DHT22;40800;52.704;6.398;2022-10-31T02:45:21;11.10;99.90
54898;DHT22;40800;52.704;6.398;2022-10-31T02:47:49;11.00;99.90
54898;DHT22;40800;52.704;6.398;2022-10-31T02:50:41;10.80;99.90
54898;DHT22;40800;52.704;6.398;2022-10-31T02:53:05;10.80;99.90
54898;DHT22;40800;52.704;6.398;2022-10-31T02:58:21;10.80;99.90
54898;DHT22;40800;52.704;6.398;2022-10-31T03:01:01;10.80;99.90
54898;DHT22;40800;52.704;6.398;2022-10-31T03:12:00;10.60;99.90
54898;DHT22;40800;52.704;6.398;2022-10-31T03:14:42;10.60;99.90
54898;DHT22;40800;52.704;6.398;2022-10-31T03:17:15;10.50;99.90
54898;DHT22;40800;52.704;6.398;2022-10-31T03:19:45;10.40;99.90
54898;DHT22;40800;52.704;6.398;2022-10-31T03:22:20;10.30;99.90
54898;DHT22;40800;52.704;6.398;2022-10-31T03:24:48;10.70;99.90
54898;DHT22;40800;52.704;6.398;2022-10-31T03:27:20;10.40;99.90
54898;DHT22;40800;52.704;6.398;2022-10-31T03:29:47;10.40;99.90
54898;DHT22;40800;52.704;6.398;2022-10-31T03:32:21;10.30;99.90
54898;DHT22;40800;52.704;6.398;2022-10-31T03:34:49;10.40;99.90
54898;DHT22;40800;52.704;6.398;2022-10-31T03:37:18;10.40;99.90
54898;DHT22;40800;52.704;6.398;2022-10-31T03:39:46;10.30;99.90
54898;DHT22;40800;52.704;6.398;2022-10-31T03:42:18;10.40;99.90
54898;DHT22;40800;52.704;6.398;2022-10-31T03:44:55;10.20;99.90
54898;DHT22;40800;52.704;6.398;2022-10-31T03:47:23;10.20;99.90
54898;DHT22;40800;52.704;6.398;2022-10-31T03:49:49;10.20;99.90
54898;DHT22;40800;52.704;6.398;2022-10-31T03:54:45;10.00;99.90
54898;DHT22;40800;52.704;6.398;2022-10-31T03:57:25;10.00;99.90
54898;DHT22;40800;52.704;6.398;2022-10-31T04:00:06;9.90;99.90
54898;DHT22;40800;52.704;6.398;2022-10-31T04:02:33;9.90;99.90
54898;DHT22;40800;52.704;6.398;2022-10-31T04:05:00;9.80;99.90
54898;DHT22;40800;52.704;6.398;2022-10-31T04:07:29;9.80;99.90
54898;DHT22;40800;52.704;6.398;2022-10-31T04:09:57;9.70;99.90
54898;DHT22;40800;52.704;6.398;2022-10-31T04:12:26;9.60;99.90
54898;DHT22;40800;52.704;6.398;2022-10-31T04:14:53;9.60;99.90
54898;DHT22;40800;52.704;6.398;2022-10-31T04:17:21;9.60;99.90
54898;DHT22;40800;52.704;6.398;2022-10-31T04:19:48;9.40;99.90
54898;DHT22;40800;52.704;6.398;2022-10-31T04:22:14;9.50;99.90
54898;DHT22;40800;52.704;6.398;2022-10-31T04:24:40;9.40;99.90
54898;DHT22;40800;52.704;6.398;2022-10-31T04:27:06;9.30;99.90
54898;DHT22;40800;52.704;6.398;2022-10-31T04:29:31;9.40;99.90
54898;DHT22;40800;52.704;6.398;2022-10-31T04:31:57;9.20;99.90
54898;DHT22;40800;52.704;6.398;2022-10-31T04:34:23;9.30;99.90
54898;DHT22;40800;52.704;6.398;2022-10-31T04:36:48;9.20;99.90
54898;DHT22;40800;52.704;6.398;2022-10-31T04:39:14;9.20;99.90
54898;DHT22;40800;52.704;6.398;2022-10-31T04:41:39;9.30;99.90
54898;DHT22;40800;52.704;6.398;2022-10-31T04:44:05;9.30;99.90
54898;DHT22;40800;52.704;6.398;2022-10-31T04:46:30;9.30;99.90
54898;DHT22;40800;52.704;6.398;2022-10-31T04:48:56;9.10;99.90
54898;DHT22;40800;52.704;6.398;2022-10-31T04:51:22;9.20;99.90
54898;DHT22;40800;52.704;6.398;2022-10-31T04:53:48;9.10;99.90
54898;DHT22;40800;52.704;6.398;2022-10-31T04:56:13;9.10;99.90
54898;DHT22;40800;52.704;6.398;2022-10-31T04:58:39;9.20;99.90
54898;DHT22;40800;52.704;6.398;2022-10-31T05:01:05;9.30;99.90
54898;DHT22;40800;52.704;6.398;2022-10-31T05:03:30;9.10;99.90
54898;DHT22;40800;52.704;6.398;2022-10-31T05:05:56;9.30;99.90
54898;DHT22;40800;52.704;6.398;2022-10-31T05:08:21;9.20;99.90
54898;DHT22;40800;52.704;6.398;2022-10-31T05:10:47;9.10;99.90
54898;DHT22;40800;52.704;6.398;2022-10-31T05:13:12;9.10;99.90
54898;DHT22;40800;52.704;6.398;2022-10-31T05:15:39;9.20;99.90
54898;DHT22;40800;52.704;6.398;2022-10-31T05:18:05;9.90;99.90
54898;DHT22;40800;52.704;6.398;2022-10-31T05:20:31;9.20;99.90
54898;DHT22;40800;52.704;6.398;2022-10-31T05:22:57;9.10;99.90
54898;DHT22;40800;52.704;6.398;2022-10-31T05:25:25;9.00;99.90
54898;DHT22;40800;52.704;6.398;2022-10-31T05:27:52;9.10;99.90
54898;DHT22;40800;52.704;6.398;2022-10-31T05:30:21;9.00;99.90
54898;DHT22;40800;52.704;6.398;2022-10-31T05:32:48;9.00;99.90
54898;DHT22;40800;52.704;6.398;2022-10-31T05:35:20;9.10;99.90
54898;DHT22;40800;52.704;6.398;2022-10-31T05:37:46;9.10;99.90
54898;DHT22;40800;52.704;6.398;2022-10-31T05:40:13;9.20;99.90
54898;DHT22;40800;52.704;6.398;2022-10-31T05:42:40;9.20;99.90
54898;DHT22;40800;52.704;6.398;2022-10-31T05:45:08;9.10;99.90
54898;DHT22;40800;52.704;6.398;2022-10-31T05:47:33;9.10;99.90
54898;DHT22;40800;52.704;6.398;2022-10-31T05:49:59;9.10;99.90
54898;DHT22;40800;52.704;6.398;2022-10-31T05:52:24;9.20;99.90
54898;DHT22;40800;52.704;6.398;2022-10-31T05:54:50;9.20;99.90
54898;DHT22;40800;52.704;6.398;2022-10-31T05:57:16;9.20;99.90
54898;DHT22;40800;52.704;6.398;2022-10-31T05:59:41;9.20;99.90
54898;DHT22;40800;52.704;6.398;2022-10-31T06:02:07;9.10;99.90
54898;DHT22;40800;52.704;6.398;2022-10-31T06:04:32;9.30;99.90
54898;DHT22;40800;52.704;6.398;2022-10-31T06:06:58;9.30;99.90
54898;DHT22;40800;52.704;6.398;2022-10-31T06:09:23;9.60;99.90
54898;DHT22;40800;52.704;6.398;2022-10-31T06:11:49;9.30;99.90
54898;DHT22;40800;52.704;6.398;2022-10-31T06:14:15;9.20;99.90
54898;DHT22;40800;52.704;6.398;2022-10-31T06:16:40;9.20;99.90
54898;DHT22;40800;52.704;6.398;2022-10-31T06:19:06;9.20;99.90
54898;DHT22;40800;52.704;6.398;2022-10-31T06:21:31;9.10;99.90
54898;DHT22;40800;52.704;6.398;2022-10-31T06:23:57;9.10;99.90
54898;DHT22;40800;52.704;6.398;2022-10-31T06:26:23;9.00;99.90
54898;DHT22;40800;52.704;6.398;2022-10-31T06:28:48;8.90;99.90
54898;DHT22;40800;52.704;6.398;2022-10-31T06:31:14;9.00;99.90
54898;DHT22;40800;52.704;6.398;2022-10-31T06:33:42;9.00;99.90
54898;DHT22;40800;52.704;6.398;2022-10-31T06:36:09;8.80;99.90
54898;DHT22;40800;52.704;6.398;2022-10-31T06:38:35;8.90;99.90
54898;DHT22;40800;52.704;6.398;2022-10-31T06:41:04;8.90;99.90
54898;DHT22;40800;52.704;6.398;2022-10-31T06:43:30;8.80;99.90
54898;DHT22;40800;52.704;6.398;2022-10-31T06:45:56;8.80;99.90
54898;DHT22;40800;52.704;6.398;2022-10-31T06:48:23;8.70;99.90
54898;DHT22;40800;52.704;6.398;2022-10-31T06:50:48;8.70;99.90
54898;DHT22;40800;52.704;6.398;2022-10-31T06:53:14;8.70;99.90
54898;DHT22;40800;52.704;6.398;2022-10-31T06:55:40;8.70;99.90
54898;DHT22;40800;52.704;6.398;2022-10-31T06:58:05;8.60;99.90
54898;DHT22;40800;52.704;6.398;2022-10-31T07:00:31;8.80;99.90
54898;DHT22;40800;52.704;6.398;2022-10-31T07:02:59;8.80;99.90
54898;DHT22;40800;52.704;6.398;2022-10-31T07:05:26;8.80;99.90
54898;DHT22;40800;52.704;6.398;2022-10-31T07:07:57;8.80;99.90
54898;DHT22;40800;52.704;6.398;2022-10-31T07:10:24;8.60;99.90
54898;DHT22;40800;52.704;6.398;2022-10-31T07:12:55;8.50;99.90
54898;DHT22;40800;52.704;6.398;2022-10-31T07:15:22;8.60;99.90
54898;DHT22;40800;52.704;6.398;2022-10-31T07:17:47;8.60;99.90
54898;DHT22;40800;52.704;6.398;2022-10-31T07:20:16;8.50;99.90
54898;DHT22;40800;52.704;6.398;2022-10-31T07:22:42;8.50;99.90
54898;DHT22;40800;52.704;6.398;2022-10-31T07:25:08;8.40;99.90
54898;DHT22;40800;52.704;6.398;2022-10-31T07:27:38;8.40;99.90
54898;DHT22;40800;52.704;6.398;2022-10-31T07:30:05;8.50;99.90
54898;DHT22;40800;52.704;6.398;2022-10-31T07:32:41;8.40;99.90
54898;DHT22;40800;52.704;6.398;2022-10-31T07:35:08;8.50;99.90
54898;DHT22;40800;52.704;6.398;2022-10-31T07:37:34;8.60;99.90
54898;DHT22;40800;52.704;6.398;2022-10-31T07:40:00;8.60;99.90
54898;DHT22;40800;52.704;6.398;2022-10-31T07:42:25;8.60;99.90
54898;DHT22;40800;52.704;6.398;2022-10-31T07:44:51;9.00;99.90
54898;DHT22;40800;52.704;6.398;2022-10-31T07:47:16;8.90;99.90
54898;DHT22;40800;52.704;6.398;2022-10-31T07:49:42;9.10;99.90
54898;DHT22;40800;52.704;6.398;2022-10-31T07:52:07;9.00;99.90
54898;DHT22;40800;52.704;6.398;2022-10-31T07:54:33;9.20;99.90
54898;DHT22;40800;52.704;6.398;2022-10-31T07:56:59;9.50;99.90
54898;DHT22;40800;52.704;6.398;2022-10-31T07:59:24;9.70;99.90
54898;DHT22;40800;52.704;6.398;2022-10-31T08:01:51;9.50;99.90
54898;DHT22;40800;52.704;6.398;2022-10-31T08:04:16;9.60;99.90
54898;DHT22;40800;52.704;6.398;2022-10-31T08:06:42;9.70;99.90
54898;DHT22;40800;52.704;6.398;2022-10-31T08:09:07;10.00;99.90
54898;DHT22;40800;52.704;6.398;2022-10-31T08:11:33;9.80;99.90
54898;DHT22;40800;52.704;6.398;2022-10-31T08:13:59;10.00;99.90
54898;DHT22;40800;52.704;6.398;2022-10-31T08:16:24;9.80;99.90
54898;DHT22;40800;52.704;6.398;2022-10-31T08:18:50;10.10;99.90
54898;DHT22;40800;52.704;6.398;2022-10-31T08:21:15;10.30;99.90
54898;DHT22;40800;52.704;6.398;2022-10-31T08:23:41;10.30;99.90
54898;DHT22;40800;52.704;6.398;2022-10-31T08:26:07;10.40;99.90
54898;DHT22;40800;52.704;6.398;2022-10-31T08:28:32;10.40;99.90
54898;DHT22;40800;52.704;6.398;2022-10-31T08:30:58;10.70;99.90
54898;DHT22;40800;52.704;6.398;2022-10-31T08:33:24;10.70;99.90
54898;DHT22;40800;52.704;6.398;2022-10-31T08:35:50;10.80;99.90
54898;DHT22;40800;52.704;6.398;2022-10-31T08:38:16;10.70;99.90
54898;DHT22;40800;52.704;6.398;2022-10-31T08:40:41;11.00;99.90
54898;DHT22;40800;52.704;6.398;2022-10-31T08:43:15;10.90;99.90
54898;DHT22;40800;52.704;6.398;2022-10-31T08:45:42;11.00;99.90
54898;DHT22;40800;52.704;6.398;2022-10-31T08:48:12;11.20;99.90
54898;DHT22;40800;52.704;6.398;2022-10-31T08:50:39;11.20;99.90
54898;DHT22;40800;52.704;6.398;2022-10-31T08:53:07;11.20;99.90
54898;DHT22;40800;52.704;6.398;2022-10-31T08:55:34;11.20;99.90
54898;DHT22;40800;52.704;6.398;2022-10-31T08:58:01;11.00;99.90
54898;DHT22;40800;52.704;6.398;2022-10-31T09:00:26;11.30;99.90
54898;DHT22;40800;52.704;6.398;2022-10-31T09:03:00;11.30;99.90
54898;DHT22;40800;52.704;6.398;2022-10-31T09:05:27;11.20;99.90
54898;DHT22;40800;52.704;6.398;2022-10-31T09:07:57;11.40;99.90
54898;DHT22;40800;52.704;6.398;2022-10-31T09:10:23;11.30;99.90
54898;DHT22;40800;52.704;6.398;2022-10-31T09:12:58;11.30;99.90
54898;DHT22;40800;52.704;6.398;2022-10-31T09:15:25;11.60;99.90
54898;DHT22;40800;52.704;6.398;2022-10-31T09:17:51;11.60;99.90
54898;DHT22;40800;52.704;6.398;2022-10-31T09:20:17;11.70;99.90
54898;DHT22;40800;52.704;6.398;2022-10-31T09:22:43;11.60;99.90
54898;DHT22;40800;52.704;6.398;2022-10-31T09:25:08;11.70;99.90
54898;DHT22;40800;52.704;6.398;2022-10-31T09:27:34;11.70;99.90
54898;DHT22;40800;52.704;6.398;2022-10-31T09:30:00;11.80;99.90
54898;DHT22;40800;52.704;6.398;2022-10-31T09:32:25;12.10;99.90
54898;DHT22;40800;52.704;6.398;2022-10-31T09:34:51;12.30;99.90
54898;DHT22;40800;52.704;6.398;2022-10-31T09:37:17;12.30;99.90
54898;DHT22;40800;52.704;6.398;2022-10-31T09:39:42;12.40;99.90
54898;DHT22;40800;52.704;6.398;2022-10-31T09:45:14;12.40;99.90
54898;DHT22;40800;52.704;6.398;2022-10-31T09:55:55;12.90;99.90
54898;DHT22;40800;52.704;6.398;2022-10-31T09:58:24;13.10;99.90
54898;DHT22;40800;52.704;6.398;2022-10-31T10:00:50;13.20;99.90
54898;DHT22;40800;52.704;6.398;2022-10-31T10:03:33;13.20;99.90
54898;DHT22;40800;52.704;6.398;2022-10-31T10:06:09;13.30;99.90
54898;DHT22;40800;52.704;6.398;2022-10-31T10:08:37;13.20;99.90
54898;DHT22;40800;52.704;6.398;2022-10-31T10:12:08;13.50;99.90
54898;DHT22;40800;52.704;6.398;2022-10-31T10:14:29;13.50;99.90
54898;DHT22;40800;52.704;6.398;2022-10-31T10:17:00;13.70;99.90
54898;DHT22;40800;52.704;6.398;2022-10-31T10:32:54;15.30;99.90
54898;DHT22;40800;52.704;6.398;2022-10-31T10:35:33;15.10;99.90
54898;DHT22;40800;52.704;6.398;2022-10-31T10:38:24;15.40;99.90
54898;DHT22;40800;52.704;6.398;2022-10-31T10:40:48;15.50;99.90
54898;DHT22;40800;52.704;6.398;2022-10-31T10:43:22;15.40;99.90
54898;DHT22;40800;52.704;6.398;2022-10-31T10:45:52;15.40;99.90
54898;DHT22;40800;52.704;6.398;2022-10-31T10:49:25;15.20;99.90
54898;DHT22;40800;52.704;6.398;2022-10-31T10:51:52;15.60;99.90
54898;DHT22;40800;52.704;6.398;2022-10-31T10:54:45;15.70;99.90
54898;DHT22;40800;52.704;6.398;2022-10-31T11:00:30;15.50;99.90
54898;DHT22;40800;52.704;6.398;2022-10-31T11:02:56;15.60;99.90
54898;DHT22;40800;52.704;6.398;2022-10-31T11:05:55;15.60;99.90
54898;DHT22;40800;52.704;6.398;2022-10-31T11:08:35;15.40;99.90
54898;DHT22;40800;52.704;6.398;2022-10-31T11:13:36;15.40;99.90
54898;DHT22;40800;52.704;6.398;2022-10-31T11:16:07;15.30;99.90
54898;DHT22;40800;52.704;6.398;2022-10-31T11:18:45;15.40;99.90
54898;DHT22;40800;52.704;6.398;2022-10-31T11:23:47;15.70;99.90
54898;DHT22;40800;52.704;6.398;2022-10-31T11:26:20;15.50;99.90
54898;DHT22;40800;52.704;6.398;2022-10-31T11:28:56;15.60;99.90
54898;DHT22;40800;52.704;6.398;2022-10-31T11:31:23;15.70;99.90
54898;DHT22;40800;52.704;6.398;2022-10-31T11:33:59;15.70;99.90
54898;DHT22;40800;52.704;6.398;2022-10-31T11:36:34;15.80;99.90
54898;DHT22;40800;52.704;6.398;2022-10-31T11:39:03;15.80;99.90
54898;DHT22;40800;52.704;6.398;2022-10-31T11:41:34;15.80;99.90
54898;DHT22;40800;52.704;6.398;2022-10-31T11:44:15;16.00;99.90
54898;DHT22;40800;52.704;6.398;2022-10-31T11:46:50;16.10;99.90
54898;DHT22;40800;52.704;6.398;2022-10-31T11:49:28;16.30;99.90
54898;DHT22;40800;52.704;6.398;2022-10-31T11:51:57;16.40;99.90
54898;DHT22;40800;52.704;6.398;2022-10-31T11:54:33;16.40;99.90
54898;DHT22;40800;52.704;6.398;2022-10-31T11:57:00;16.50;99.90
54898;DHT22;40800;52.704;6.398;2022-10-31T11:59:28;16.60;99.90
54898;DHT22;40800;52.704;6.398;2022-10-31T12:01:56;16.60;99.90
54898;DHT22;40800;52.704;6.398;2022-10-31T12:04:37;16.60;99.90
54898;DHT22;40800;52.704;6.398;2022-10-31T12:07:04;16.50;99.90
54898;DHT22;40800;52.704;6.398;2022-10-31T12:09:33;16.60;99.90
54898;DHT22;40800;52.704;6.398;2022-10-31T12:15:44;16.50;99.90
54898;DHT22;40800;52.704;6.398;2022-10-31T12:20:46;16.40;99.90
54898;DHT22;40800;52.704;6.398;2022-10-31T12:23:27;16.30;99.90
54898;DHT22;40800;52.704;6.398;2022-10-31T12:26:05;16.30;99.90
54898;DHT22;40800;52.704;6.398;2022-10-31T12:34:07;16.40;99.90
54898;DHT22;40800;52.704;6.398;2022-10-31T12:36:49;16.30;99.90
54898;DHT22;40800;52.704;6.398;2022-10-31T12:39:32;16.30;99.90
54898;DHT22;40800;52.704;6.398;2022-10-31T12:44:58;16.30;99.90
54898;DHT22;40800;52.704;6.398;2022-10-31T12:56:14;16.30;99.90
54898;DHT22;40800;52.704;6.398;2022-10-31T13:01:40;16.30;99.90
54898;DHT22;40800;52.704;6.398;2022-10-31T13:04:15;16.40;99.90
54898;DHT22;40800;52.704;6.398;2022-10-31T13:06:59;16.40;99.90
54898;DHT22;40800;52.704;6.398;2022-10-31T13:10:05;16.60;99.90
54898;DHT22;40800;52.704;6.398;2022-10-31T13:12:34;16.80;99.90
54898;DHT22;40800;52.704;6.398;2022-10-31T13:15:16;16.70;99.90
54898;DHT22;40800;52.704;6.398;2022-10-31T13:17:47;16.70;99.90
54898;DHT22;40800;52.704;6.398;2022-10-31T13:20:32;16.70;99.90
54898;DHT22;40800;52.704;6.398;2022-10-31T13:23:33;16.60;99.90
54898;DHT22;40800;52.704;6.398;2022-10-31T13:25:59;16.70;99.90
54898;DHT22;40800;52.704;6.398;2022-10-31T13:28:37;16.70;99.90
54898;DHT22;40800;52.704;6.398;2022-10-31T13:31:04;16.70;99.90
54898;DHT22;40800;52.704;6.398;2022-10-31T13:33:41;16.70;99.90
54898;DHT22;40800;52.704;6.398;2022-10-31T13:36:20;16.80;99.90
54898;DHT22;40800;52.704;6.398;2022-10-31T13:38:51;16.80;99.90
54898;DHT22;40800;52.704;6.398;2022-10-31T13:44:23;16.80;99.90
54898;DHT22;40800;52.704;6.398;2022-10-31T13:46:51;16.80;99.90
54898;DHT22;40800;52.704;6.398;2022-10-31T13:54:46;16.60;99.90
54898;DHT22;40800;52.704;6.398;2022-10-31T13:59:49;16.50;99.90
54898;DHT22;40800;52.704;6.398;2022-10-31T14:02:17;16.60;99.90
54898;DHT22;40800;52.704;6.398;2022-10-31T14:04:51;16.60;99.90
54898;DHT22;40800;52.704;6.398;2022-10-31T14:07:24;16.60;99.90
54898;DHT22;40800;52.704;6.398;2022-10-31T14:15:02;16.60;99.90
54898;DHT22;40800;52.704;6.398;2022-10-31T14:17:34;16.60;99.90
54898;DHT22;40800;52.704;6.398;2022-10-31T14:22:39;16.50;99.90
54898;DHT22;40800;52.704;6.398;2022-10-31T14:25:31;16.60;99.90
54898;DHT22;40800;52.704;6.398;2022-10-31T14:27:59;16.50;99.90
54898;DHT22;40800;52.704;6.398;2022-10-31T14:30:27;16.50;99.90
54898;DHT22;40800;52.704;6.398;2022-10-31T14:32:59;16.50;99.90
54898;DHT22;40800;52.704;6.398;2022-10-31T14:35:36;16.50;99.90
54898;DHT22;40800;52.704;6.398;2022-10-31T14:38:10;16.50;99.90
54898;DHT22;40800;52.704;6.398;2022-10-31T14:40:55;16.40;99.90
54898;DHT22;40800;52.704;6.398;2022-10-31T14:52:12;16.30;99.90
54898;DHT22;40800;52.704;6.398;2022-10-31T14:54:42;16.20;99.90
54898;DHT22;40800;52.704;6.398;2022-10-31T14:59:52;16.20;99.90
54898;DHT22;40800;52.704;6.398;2022-10-31T15:02:24;16.20;99.90
54898;DHT22;40800;52.704;6.398;2022-10-31T15:04:52;16.20;99.90
54898;DHT22;40800;52.704;6.398;2022-10-31T15:07:24;16.20;99.90
54898;DHT22;40800;52.704;6.398;2022-10-31T15:10:03;16.10;99.90
54898;DHT22;40800;52.704;6.398;2022-10-31T15:12:33;16.10;99.90
54898;DHT22;40800;52.704;6.398;2022-10-31T15:15:23;16.10;99.90
54898;DHT22;40800;52.704;6.398;2022-10-31T15:18:00;16.10;99.90
54898;DHT22;40800;52.704;6.398;2022-10-31T15:20:31;16.20;99.90
54898;DHT22;40800;52.704;6.398;2022-10-31T15:22:59;16.10;99.90
54898;DHT22;40800;52.704;6.398;2022-10-31T15:25:29;16.10;99.90
54898;DHT22;40800;52.704;6.398;2022-10-31T15:27:56;16.00;99.90
54898;DHT22;40800;52.704;6.398;2022-10-31T15:30:27;16.00;99.90
54898;DHT22;40800;52.704;6.398;2022-10-31T15:32:53;16.00;99.90
54898;DHT22;40800;52.704;6.398;2022-10-31T15:35:25;15.90;99.90
54898;DHT22;40800;52.704;6.398;2022-10-31T15:37:54;15.80;99.90
54898;DHT22;40800;52.704;6.398;2022-10-31T15:40:22;15.70;99.90
54898;DHT22;40800;52.704;6.398;2022-10-31T15:42:57;15.80;99.90
54898;DHT22;40800;52.704;6.398;2022-10-31T15:45:25;15.60;99.90
54898;DHT22;40800;52.704;6.398;2022-10-31T15:52:53;15.40;99.90
54898;DHT22;40800;52.704;6.398;2022-10-31T15:55:29;15.50;99.90
54898;DHT22;40800;52.704;6.398;2022-10-31T15:58:01;15.50;99.90
54898;DHT22;40800;52.704;6.398;2022-10-31T16:00:35;15.50;99.90
54898;DHT22;40800;52.704;6.398;2022-10-31T16:03:23;15.60;99.90
54898;DHT22;40800;52.704;6.398;2022-10-31T16:05:50;15.50;99.90
54898;DHT22;40800;52.704;6.398;2022-10-31T16:08:35;15.50;99.90
54898;DHT22;40800;52.704;6.398;2022-10-31T16:13:57;15.40;99.90
54898;DHT22;40800;52.704;6.398;2022-10-31T16:16:23;15.50;99.90
54898;DHT22;40800;52.704;6.398;2022-10-31T16:18:51;15.40;99.90
54898;DHT22;40800;52.704;6.398;2022-10-31T16:21:35;15.50;99.90
54898;DHT22;40800;52.704;6.398;2022-10-31T16:24:24;15.30;99.90
54898;DHT22;40800;52.704;6.398;2022-10-31T16:26:52;15.30;99.90
54898;DHT22;40800;52.704;6.398;2022-10-31T16:29:47;15.40;99.90
54898;DHT22;40800;52.704;6.398;2022-10-31T16:32:37;15.40;99.90
54898;DHT22;40800;52.704;6.398;2022-10-31T16:35:25;15.20;99.90
54898;DHT22;40800;52.704;6.398;2022-10-31T16:37:52;15.20;99.90
54898;DHT22;40800;52.704;6.398;2022-10-31T16:40:17;15.20;99.90
54898;DHT22;40800;52.704;6.398;2022-10-31T16:42:44;15.20;99.90
54898;DHT22;40800;52.704;6.398;2022-10-31T16:45:22;15.10;99.90
54898;DHT22;40800;52.704;6.398;2022-10-31T16:47:48;15.20;99.90
54898;DHT22;40800;52.704;6.398;2022-10-31T16:50:26;15.20;99.90
54898;DHT22;40800;52.704;6.398;2022-10-31T16:52:52;15.30;99.90
54898;DHT22;40800;52.704;6.398;2022-10-31T16:55:19;15.20;99.90
54898;DHT22;40800;52.704;6.398;2022-10-31T16:57:51;15.20;99.90
54898;DHT22;40800;52.704;6.398;2022-10-31T17:00:22;15.20;99.90
54898;DHT22;40800;52.704;6.398;2022-10-31T17:02:51;15.20;99.90
54898;DHT22;40800;52.704;6.398;2022-10-31T17:05:19;15.10;99.90
54898;DHT22;40800;52.704;6.398;2022-10-31T17:07:46;15.10;99.90
54898;DHT22;40800;52.704;6.398;2022-10-31T17:10:13;15.20;99.90
54898;DHT22;40800;52.704;6.398;2022-10-31T17:12:39;15.00;99.90
54898;DHT22;40800;52.704;6.398;2022-10-31T17:15:14;15.10;99.90
54898;DHT22;40800;52.704;6.398;2022-10-31T17:17:40;15.30;99.90
54898;DHT22;40800;52.704;6.398;2022-10-31T17:20:18;15.20;99.90
54898;DHT22;40800;52.704;6.398;2022-10-31T17:22:44;15.10;99.90
54898;DHT22;40800;52.704;6.398;2022-10-31T17:25:15;15.10;99.90
54898;DHT22;40800;52.704;6.398;2022-10-31T17:27:42;15.40;99.90
54898;DHT22;40800;52.704;6.398;2022-10-31T17:30:08;15.20;99.90
54898;DHT22;40800;52.704;6.398;2022-10-31T17:32:35;15.20;99.90
54898;DHT22;40800;52.704;6.398;2022-10-31T17:35:01;15.10;99.90
54898;DHT22;40800;52.704;6.398;2022-10-31T17:37:26;15.10;99.90
54898;DHT22;40800;52.704;6.398;2022-10-31T17:39:52;15.10;99.90
54898;DHT22;40800;52.704;6.398;2022-10-31T17:42:17;15.30;99.90
54898;DHT22;40800;52.704;6.398;2022-10-31T17:44:43;15.40;99.90
54898;DHT22;40800;52.704;6.398;2022-10-31T17:47:09;15.10;99.90
54898;DHT22;40800;52.704;6.398;2022-10-31T17:49:34;15.10;99.90
54898;DHT22;40800;52.704;6.398;2022-10-31T17:52:00;15.00;99.90
54898;DHT22;40800;52.704;6.398;2022-10-31T17:54:25;15.10;99.90
54898;DHT22;40800;52.704;6.398;2022-10-31T17:56:52;15.00;99.90
54898;DHT22;40800;52.704;6.398;2022-10-31T17:59:18;15.20;99.90